sensor_id;sensor_type;location;lat;lon;timestamp;temperature;humidity
7014;DHT22;3547;50.774;12.918;2023-05-16T00:00:24;9.90;1.00
7014;DHT22;3547;50.774;12.918;2023-05-16T00:02:50;9.90;1.00
7014;DHT22;3547;50.774;12.918;2023-05-16T00:05:16;9.80;1.00
7014;DHT22;3547;50.774;12.918;2023-05-16T00:07:44;9.70;1.00
7014;DHT22;3547;50.774;12.918;2023-05-16T00:10:10;9.70;1.00
7014;DHT22;3547;50.774;12.918;2023-05-16T00:12:37;9.70;1.00
7014;DHT22;3547;50.774;12.918;2023-05-16T00:15:09;9.70;1.00
7014;DHT22;3547;50.774;12.918;2023-05-16T00:17:37;9.70;1.00
7014;DHT22;3547;50.774;12.918;2023-05-16T00:20:04;9.70;1.00
7014;DHT22;3547;50.774;12.918;2023-05-16T00:22:32;9.50;1.00
7014;DHT22;3547;50.774;12.918;2023-05-16T00:24:59;9.50;1.00
7014;DHT22;3547;50.774;12.918;2023-05-16T00:27:25;9.50;1.00
7014;DHT22;3547;50.774;12.918;2023-05-16T00:29:51;9.50;1.00
7014;DHT22;3547;50.774;12.918;2023-05-16T00:32:17;9.50;1.00
7014;DHT22;3547;50.774;12.918;2023-05-16T00:34:43;9.50;1.00
7014;DHT22;3547;50.774;12.918;2023-05-16T00:37:09;9.50;1.00
7014;DHT22;3547;50.774;12.918;2023-05-16T00:39:36;9.50;1.00
7014;DHT22;3547;50.774;12.918;2023-05-16T00:42:02;9.50;1.00
7014;DHT22;3547;50.774;12.918;2023-05-16T00:44:28;9.40;1.00
7014;DHT22;3547;50.774;12.918;2023-05-16T00:46:55;9.50;1.00
7014;DHT22;3547;50.774;12.918;2023-05-16T00:49:23;9.50;1.00
7014;DHT22;3547;50.774;12.918;2023-05-16T00:51:49;9.50;1.00
7014;DHT22;3547;50.774;12.918;2023-05-16T00:54:17;9.50;1.00
7014;DHT22;3547;50.774;12.918;2023-05-16T00:56:45;9.50;1.00
7014;DHT22;3547;50.774;12.918;2023-05-16T00:59:11;9.40;1.00
7014;DHT22;3547;50.774;12.918;2023-05-16T01:01:38;9.40;1.00
7014;DHT22;3547;50.774;12.918;2023-05-16T01:04:06;9.40;1.00
7014;DHT22;3547;50.774;12.918;2023-05-16T01:06:33;9.40;1.00
7014;DHT22;3547;50.774;12.918;2023-05-16T01:09:00;9.40;1.00
7014;DHT22;3547;50.774;12.918;2023-05-16T01:14:48;9.40;1.00
7014;DHT22;3547;50.774;12.918;2023-05-16T01:23:18;9.40;1.00
7014;DHT22;3547;50.774;12.918;2023-05-16T01:28:21;9.30;1.00
7014;DHT22;3547;50.774;12.918;2023-05-16T01:30:50;9.30;3.40
7014;DHT22;3547;50.774;12.918;2023-05-16T01:33:16;9.20;1.00
7014;DHT22;3547;50.774;12.918;2023-05-16T01:35:58;9.20;1.00
7014;DHT22;3547;50.774;12.918;2023-05-16T01:38:44;9.20;1.00
7014;DHT22;3547;50.774;12.918;2023-05-16T01:41:38;9.20;1.00
7014;DHT22;3547;50.774;12.918;2023-05-16T01:44:14;9.20;1.00
7014;DHT22;3547;50.774;12.918;2023-05-16T01:46:45;9.20;1.00
7014;DHT22;3547;50.774;12.918;2023-05-16T01:49:16;9.10;1.00
7014;DHT22;3547;50.774;12.918;2023-05-16T01:52:01;9.20;1.00
7014;DHT22;3547;50.774;12.918;2023-05-16T01:54:31;9.20;1.00
7014;DHT22;3547;50.774;12.918;2023-05-16T01:56:59;9.20;1.00
7014;DHT22;3547;50.774;12.918;2023-05-16T01:59:26;9.10;1.00
7014;DHT22;3547;50.774;12.918;2023-05-16T02:01:53;9.10;1.00
7014;DHT22;3547;50.774;12.918;2023-05-16T02:04:20;9.10;1.00
7014;DHT22;3547;50.774;12.918;2023-05-16T02:06:47;9.10;5.30
7014;DHT22;3547;50.774;12.918;2023-05-16T02:12:36;9.30;1.00
7014;DHT22;3547;50.774;12.918;2023-05-16T02:15:02;9.30;1.00
7014;DHT22;3547;50.774;12.918;2023-05-16T02:17:28;9.30;1.00
7014;DHT22;3547;50.774;12.918;2023-05-16T02:19:54;9.30;4.10
7014;DHT22;3547;50.774;12.918;2023-05-16T02:22:20;9.40;3.10
7014;DHT22;3547;50.774;12.918;2023-05-16T02:24:46;9.40;3.00
7014;DHT22;3547;50.774;12.918;2023-05-16T02:27:12;9.50;2.90
7014;DHT22;3547;50.774;12.918;2023-05-16T02:29:38;9.60;1.00
7014;DHT22;3547;50.774;12.918;2023-05-16T02:32:05;9.60;1.70
7014;DHT22;3547;50.774;12.918;2023-05-16T02:34:31;9.60;1.00
7014;DHT22;3547;50.774;12.918;2023-05-16T02:36:57;9.50;1.00
7014;DHT22;3547;50.774;12.918;2023-05-16T02:39:23;9.50;1.90
7014;DHT22;3547;50.774;12.918;2023-05-16T02:41:49;9.60;2.30
7014;DHT22;3547;50.774;12.918;2023-05-16T02:44:16;9.60;2.30
7014;DHT22;3547;50.774;12.918;2023-05-16T02:46:42;9.60;3.10
7014;DHT22;3547;50.774;12.918;2023-05-16T02:49:08;9.60;4.80
7014;DHT22;3547;50.774;12.918;2023-05-16T02:51:34;9.70;8.60
7014;DHT22;3547;50.774;12.918;2023-05-16T02:54:00;9.70;6.20
7014;DHT22;3547;50.774;12.918;2023-05-16T02:56:26;9.70;4.50
7014;DHT22;3547;50.774;12.918;2023-05-16T02:58:53;9.70;3.00
7014;DHT22;3547;50.774;12.918;2023-05-16T03:01:20;9.70;4.40
7014;DHT22;3547;50.774;12.918;2023-05-16T03:03:46;9.70;3.80
7014;DHT22;3547;50.774;12.918;2023-05-16T03:06:12;9.70;3.40
7014;DHT22;3547;50.774;12.918;2023-05-16T03:08:39;9.70;2.70
7014;DHT22;3547;50.774;12.918;2023-05-16T03:11:05;9.60;3.70
7014;DHT22;3547;50.774;12.918;2023-05-16T03:13:31;9.60;3.10
7014;DHT22;3547;50.774;12.918;2023-05-16T03:15:58;9.60;2.30
7014;DHT22;3547;50.774;12.918;2023-05-16T03:18:24;9.60;2.70
7014;DHT22;3547;50.774;12.918;2023-05-16T03:20:50;9.60;5.00
7014;DHT22;3547;50.774;12.918;2023-05-16T03:23:20;9.60;4.70
7014;DHT22;3547;50.774;12.918;2023-05-16T03:25:46;9.60;4.10
7014;DHT22;3547;50.774;12.918;2023-05-16T03:28:13;9.60;5.00
7014;DHT22;3547;50.774;12.918;2023-05-16T03:30:39;9.70;2.70
7014;DHT22;3547;50.774;12.918;2023-05-16T03:33:05;9.70;1.70
7014;DHT22;3547;50.774;12.918;2023-05-16T03:35:32;9.90;1.00
7014;DHT22;3547;50.774;12.918;2023-05-16T03:37:59;9.90;1.60
7014;DHT22;3547;50.774;12.918;2023-05-16T03:40:25;9.90;1.00
7014;DHT22;3547;50.774;12.918;2023-05-16T03:42:51;9.90;1.40
7014;DHT22;3547;50.774;12.918;2023-05-16T03:45:18;10.00;1.30
7014;DHT22;3547;50.774;12.918;2023-05-16T03:47:44;9.90;5.20
7014;DHT22;3547;50.774;12.918;2023-05-16T03:50:10;10.00;5.40
7014;DHT22;3547;50.774;12.918;2023-05-16T03:52:36;10.00;5.40
7014;DHT22;3547;50.774;12.918;2023-05-16T03:55:03;10.00;4.20
7014;DHT22;3547;50.774;12.918;2023-05-16T03:57:31;10.00;5.00
7014;DHT22;3547;50.774;12.918;2023-05-16T03:59:58;10.10;5.80
7014;DHT22;3547;50.774;12.918;2023-05-16T04:02:24;10.10;9.00
7014;DHT22;3547;50.774;12.918;2023-05-16T04:04:50;10.10;4.80
7014;DHT22;3547;50.774;12.918;2023-05-16T04:07:16;10.10;7.90
7014;DHT22;3547;50.774;12.918;2023-05-16T04:09:42;10.10;7.50
7014;DHT22;3547;50.774;12.918;2023-05-16T04:12:08;10.00;5.70
7014;DHT22;3547;50.774;12.918;2023-05-16T04:14:35;9.90;3.90
7014;DHT22;3547;50.774;12.918;2023-05-16T04:17:01;10.00;4.70
7014;DHT22;3547;50.774;12.918;2023-05-16T04:19:27;10.00;3.90
7014;DHT22;3547;50.774;12.918;2023-05-16T04:21:53;10.00;6.10
7014;DHT22;3547;50.774;12.918;2023-05-16T04:24:19;10.10;2.10
7014;DHT22;3547;50.774;12.918;2023-05-16T04:26:45;10.00;1.00
7014;DHT22;3547;50.774;12.918;2023-05-16T04:29:12;10.00;1.00
7014;DHT22;3547;50.774;12.918;2023-05-16T04:31:39;10.00;1.00
7014;DHT22;3547;50.774;12.918;2023-05-16T04:34:05;10.10;1.00
7014;DHT22;3547;50.774;12.918;2023-05-16T04:36:33;10.10;1.00
7014;DHT22;3547;50.774;12.918;2023-05-16T04:39:00;10.10;1.00
7014;DHT22;3547;50.774;12.918;2023-05-16T04:41:26;10.00;1.00
7014;DHT22;3547;50.774;12.918;2023-05-16T04:43:53;9.80;1.00
7014;DHT22;3547;50.774;12.918;2023-05-16T04:46:19;9.70;1.00
7014;DHT22;3547;50.774;12.918;2023-05-16T04:48:46;9.70;1.00
7014;DHT22;3547;50.774;12.918;2023-05-16T04:51:12;9.70;1.00
7014;DHT22;3547;50.774;12.918;2023-05-16T04:53:38;9.70;1.00
7014;DHT22;3547;50.774;12.918;2023-05-16T04:56:04;9.90;1.00
7014;DHT22;3547;50.774;12.918;2023-05-16T04:58:31;9.90;1.00
7014;DHT22;3547;50.774;12.918;2023-05-16T05:00:57;9.90;1.00
7014;DHT22;3547;50.774;12.918;2023-05-16T05:03:23;9.80;1.00
7014;DHT22;3547;50.774;12.918;2023-05-16T05:05:49;9.90;1.00
7014;DHT22;3547;50.774;12.918;2023-05-16T05:08:15;10.10;1.00
7014;DHT22;3547;50.774;12.918;2023-05-16T05:10:41;10.20;1.00
7014;DHT22;3547;50.774;12.918;2023-05-16T05:13:08;10.30;1.00
7014;DHT22;3547;50.774;12.918;2023-05-16T05:15:34;10.20;1.00
7014;DHT22;3547;50.774;12.918;2023-05-16T05:18:00;10.00;1.00
7014;DHT22;3547;50.774;12.918;2023-05-16T05:20:26;9.70;1.00
7014;DHT22;3547;50.774;12.918;2023-05-16T05:22:52;9.60;1.00
7014;DHT22;3547;50.774;12.918;2023-05-16T05:25:19;9.60;1.00
7014;DHT22;3547;50.774;12.918;2023-05-16T05:27:45;9.80;1.00
7014;DHT22;3547;50.774;12.918;2023-05-16T05:30:11;9.70;1.00
7014;DHT22;3547;50.774;12.918;2023-05-16T05:32:37;9.90;1.00
7014;DHT22;3547;50.774;12.918;2023-05-16T05:35:04;9.80;1.00
7014;DHT22;3547;50.774;12.918;2023-05-16T05:37:31;9.70;1.00
7014;DHT22;3547;50.774;12.918;2023-05-16T05:39:57;9.80;1.00
7014;DHT22;3547;50.774;12.918;2023-05-16T05:42:23;10.00;1.00
7014;DHT22;3547;50.774;12.918;2023-05-16T05:44:49;9.80;1.00
7014;DHT22;3547;50.774;12.918;2023-05-16T05:47:15;9.90;1.00
7014;DHT22;3547;50.774;12.918;2023-05-16T05:49:42;9.80;1.00
7014;DHT22;3547;50.774;12.918;2023-05-16T05:52:08;9.80;1.00
7014;DHT22;3547;50.774;12.918;2023-05-16T05:54:34;9.70;1.00
7014;DHT22;3547;50.774;12.918;2023-05-16T05:57:00;9.60;1.00
7014;DHT22;3547;50.774;12.918;2023-05-16T05:59:26;9.50;1.00
7014;DHT22;3547;50.774;12.918;2023-05-16T06:01:53;9.40;1.00
7014;DHT22;3547;50.774;12.918;2023-05-16T06:04:19;9.40;1.00
7014;DHT22;3547;50.774;12.918;2023-05-16T06:06:46;9.40;1.00
7014;DHT22;3547;50.774;12.918;2023-05-16T06:09:12;9.40;1.00
7014;DHT22;3547;50.774;12.918;2023-05-16T06:11:40;9.60;1.00
7014;DHT22;3547;50.774;12.918;2023-05-16T06:14:06;9.80;1.00
7014;DHT22;3547;50.774;12.918;2023-05-16T06:16:33;9.80;1.00
7014;DHT22;3547;50.774;12.918;2023-05-16T06:18:59;9.70;1.00
7014;DHT22;3547;50.774;12.918;2023-05-16T06:21:25;9.50;1.00
7014;DHT22;3547;50.774;12.918;2023-05-16T06:23:51;9.50;1.00
7014;DHT22;3547;50.774;12.918;2023-05-16T06:26:17;9.60;1.00
7014;DHT22;3547;50.774;12.918;2023-05-16T06:28:43;9.60;1.00
7014;DHT22;3547;50.774;12.918;2023-05-16T06:31:10;9.30;1.00
7014;DHT22;3547;50.774;12.918;2023-05-16T06:33:36;9.50;1.00
7014;DHT22;3547;50.774;12.918;2023-05-16T06:36:02;9.50;1.00
7014;DHT22;3547;50.774;12.918;2023-05-16T06:38:28;9.40;1.00
7014;DHT22;3547;50.774;12.918;2023-05-16T06:40:54;9.40;1.00
7014;DHT22;3547;50.774;12.918;2023-05-16T06:43:20;9.60;1.20
7014;DHT22;3547;50.774;12.918;2023-05-16T06:45:46;9.50;1.00
7014;DHT22;3547;50.774;12.918;2023-05-16T06:48:13;9.50;1.00
7014;DHT22;3547;50.774;12.918;2023-05-16T06:50:46;9.20;1.00
7014;DHT22;3547;50.774;12.918;2023-05-16T06:53:13;9.40;1.00
7014;DHT22;3547;50.774;12.918;2023-05-16T06:55:39;9.50;1.00
7014;DHT22;3547;50.774;12.918;2023-05-16T06:58:05;9.50;1.00
7014;DHT22;3547;50.774;12.918;2023-05-16T07:00:31;9.70;1.00
7014;DHT22;3547;50.774;12.918;2023-05-16T07:02:57;9.40;1.00
7014;DHT22;3547;50.774;12.918;2023-05-16T07:05:23;9.60;1.00
7014;DHT22;3547;50.774;12.918;2023-05-16T07:07:49;9.70;1.00
7014;DHT22;3547;50.774;12.918;2023-05-16T07:10:16;9.50;1.00
7014;DHT22;3547;50.774;12.918;2023-05-16T07:12:42;9.70;1.00
7014;DHT22;3547;50.774;12.918;2023-05-16T07:15:08;9.60;1.00
7014;DHT22;3547;50.774;12.918;2023-05-16T07:17:35;9.60;3.30
7014;DHT22;3547;50.774;12.918;2023-05-16T07:20:01;9.70;2.80
7014;DHT22;3547;50.774;12.918;2023-05-16T07:22:28;9.70;1.00
7014;DHT22;3547;50.774;12.918;2023-05-16T07:24:55;9.70;1.30
7014;DHT22;3547;50.774;12.918;2023-05-16T07:27:26;9.60;1.00
7014;DHT22;3547;50.774;12.918;2023-05-16T07:29:53;9.30;1.00
7014;DHT22;3547;50.774;12.918;2023-05-16T07:32:19;9.40;1.00
7014;DHT22;3547;50.774;12.918;2023-05-16T07:34:45;9.40;1.00
7014;DHT22;3547;50.774;12.918;2023-05-16T07:37:11;9.40;1.00
7014;DHT22;3547;50.774;12.918;2023-05-16T07:39:39;9.50;1.00
7014;DHT22;3547;50.774;12.918;2023-05-16T07:42:08;9.60;1.00
7014;DHT22;3547;50.774;12.918;2023-05-16T07:44:34;9.60;1.00
7014;DHT22;3547;50.774;12.918;2023-05-16T07:47:01;9.60;1.00
7014;DHT22;3547;50.774;12.918;2023-05-16T07:49:27;9.60;1.00
7014;DHT22;3547;50.774;12.918;2023-05-16T07:51:53;9.40;1.00
7014;DHT22;3547;50.774;12.918;2023-05-16T07:54:19;9.30;1.00
7014;DHT22;3547;50.774;12.918;2023-05-16T07:56:46;9.40;1.00
7014;DHT22;3547;50.774;12.918;2023-05-16T07:59:12;9.50;1.00
7014;DHT22;3547;50.774;12.918;2023-05-16T08:01:38;9.40;1.00
7014;DHT22;3547;50.774;12.918;2023-05-16T08:04:04;9.40;1.00
7014;DHT22;3547;50.774;12.918;2023-05-16T08:06:31;9.40;1.00
7014;DHT22;3547;50.774;12.918;2023-05-16T08:08:57;9.40;1.00
7014;DHT22;3547;50.774;12.918;2023-05-16T08:11:23;9.40;1.00
7014;DHT22;3547;50.774;12.918;2023-05-16T08:13:49;9.60;1.00
7014;DHT22;3547;50.774;12.918;2023-05-16T08:16:16;9.50;1.00
7014;DHT22;3547;50.774;12.918;2023-05-16T08:18:42;9.60;1.00
7014;DHT22;3547;50.774;12.918;2023-05-16T08:21:08;9.70;1.00
7014;DHT22;3547;50.774;12.918;2023-05-16T08:23:34;9.70;1.00
7014;DHT22;3547;50.774;12.918;2023-05-16T08:26:01;9.70;1.00
7014;DHT22;3547;50.774;12.918;2023-05-16T08:28:28;9.60;1.00
7014;DHT22;3547;50.774;12.918;2023-05-16T08:30:54;9.70;1.00
7014;DHT22;3547;50.774;12.918;2023-05-16T08:33:21;9.60;1.00
7014;DHT22;3547;50.774;12.918;2023-05-16T08:35:47;9.70;1.00
7014;DHT22;3547;50.774;12.918;2023-05-16T08:38:17;9.90;1.00
7014;DHT22;3547;50.774;12.918;2023-05-16T08:40:44;9.80;1.00
7014;DHT22;3547;50.774;12.918;2023-05-16T08:43:10;9.80;1.00
7014;DHT22;3547;50.774;12.918;2023-05-16T08:45:37;9.80;1.00
7014;DHT22;3547;50.774;12.918;2023-05-16T08:48:05;9.70;1.00
7014;DHT22;3547;50.774;12.918;2023-05-16T08:50:32;9.70;1.00
7014;DHT22;3547;50.774;12.918;2023-05-16T08:53:04;9.80;1.00
7014;DHT22;3547;50.774;12.918;2023-05-16T08:55:32;9.90;1.00
7014;DHT22;3547;50.774;12.918;2023-05-16T08:57:59;9.90;1.00
7014;DHT22;3547;50.774;12.918;2023-05-16T09:00:26;9.90;1.00
7014;DHT22;3547;50.774;12.918;2023-05-16T09:02:52;9.90;1.00
7014;DHT22;3547;50.774;12.918;2023-05-16T09:05:18;9.90;1.00
7014;DHT22;3547;50.774;12.918;2023-05-16T09:07:44;10.00;1.00
7014;DHT22;3547;50.774;12.918;2023-05-16T09:10:11;10.00;1.00
7014;DHT22;3547;50.774;12.918;2023-05-16T09:12:39;10.10;1.00
7014;DHT22;3547;50.774;12.918;2023-05-16T09:15:07;10.20;1.00
7014;DHT22;3547;50.774;12.918;2023-05-16T09:20:13;10.50;1.00
7014;DHT22;3547;50.774;12.918;2023-05-16T09:22:55;10.50;1.00
7014;DHT22;3547;50.774;12.918;2023-05-16T09:25:23;10.60;1.00
7014;DHT22;3547;50.774;12.918;2023-05-16T09:27:57;10.50;1.00
7014;DHT22;3547;50.774;12.918;2023-05-16T09:30:29;10.40;1.00
7014;DHT22;3547;50.774;12.918;2023-05-16T09:32:56;10.40;1.00
7014;DHT22;3547;50.774;12.918;2023-05-16T09:35:22;10.40;1.00
7014;DHT22;3547;50.774;12.918;2023-05-16T09:37:50;10.60;1.00
7014;DHT22;3547;50.774;12.918;2023-05-16T09:40:22;10.30;1.00
7014;DHT22;3547;50.774;12.918;2023-05-16T09:43:03;10.20;1.00
7014;DHT22;3547;50.774;12.918;2023-05-16T09:45:31;10.10;1.00
7014;DHT22;3547;50.774;12.918;2023-05-16T09:48:04;10.20;1.00
7014;DHT22;3547;50.774;12.918;2023-05-16T09:50:32;10.30;1.00
7014;DHT22;3547;50.774;12.918;2023-05-16T09:52:59;10.10;1.00
7014;DHT22;3547;50.774;12.918;2023-05-16T09:55:26;10.00;1.00
7014;DHT22;3547;50.774;12.918;2023-05-16T09:57:52;10.10;1.00
7014;DHT22;3547;50.774;12.918;2023-05-16T10:00:18;10.10;1.00
7014;DHT22;3547;50.774;12.918;2023-05-16T10:02:44;10.20;1.00
7014;DHT22;3547;50.774;12.918;2023-05-16T10:05:11;10.30;1.00
7014;DHT22;3547;50.774;12.918;2023-05-16T10:07:39;10.40;1.00
7014;DHT22;3547;50.774;12.918;2023-05-16T10:10:07;10.50;1.00
7014;DHT22;3547;50.774;12.918;2023-05-16T10:12:35;10.70;1.00
7014;DHT22;3547;50.774;12.918;2023-05-16T10:15:03;11.00;1.00
7014;DHT22;3547;50.774;12.918;2023-05-16T10:17:32;11.20;1.00
7014;DHT22;3547;50.774;12.918;2023-05-16T10:20:06;11.40;1.00
7014;DHT22;3547;50.774;12.918;2023-05-16T10:22:41;11.50;1.00
7014;DHT22;3547;50.774;12.918;2023-05-16T10:25:28;11.60;1.00
7014;DHT22;3547;50.774;12.918;2023-05-16T10:27:57;11.70;1.00
7014;DHT22;3547;50.774;12.918;2023-05-16T10:30:24;11.70;1.00
7014;DHT22;3547;50.774;12.918;2023-05-16T10:32:51;11.70;1.00
7014;DHT22;3547;50.774;12.918;2023-05-16T10:35:19;11.70;1.00
7014;DHT22;3547;50.774;12.918;2023-05-16T10:37:47;11.40;1.00
7014;DHT22;3547;50.774;12.918;2023-05-16T10:40:15;11.10;1.00
7014;DHT22;3547;50.774;12.918;2023-05-16T10:43:01;11.20;1.00
7014;DHT22;3547;50.774;12.918;2023-05-16T10:45:29;11.30;1.00
7014;DHT22;3547;50.774;12.918;2023-05-16T10:47:59;11.30;1.00
7014;DHT22;3547;50.774;12.918;2023-05-16T10:50:43;11.30;1.00
7014;DHT22;3547;50.774;12.918;2023-05-16T10:53:32;11.50;1.00
7014;DHT22;3547;50.774;12.918;2023-05-16T10:58:42;11.80;1.00
7014;DHT22;3547;50.774;12.918;2023-05-16T11:01:16;11.90;1.00
7014;DHT22;3547;50.774;12.918;2023-05-16T11:06:32;11.70;1.00
7014;DHT22;3547;50.774;12.918;2023-05-16T11:17:12;11.70;1.00
7014;DHT22;3547;50.774;12.918;2023-05-16T11:20:04;11.80;1.00
7014;DHT22;3547;50.774;12.918;2023-05-16T11:22:37;11.70;1.00
7014;DHT22;3547;50.774;12.918;2023-05-16T11:25:08;11.80;1.00
7014;DHT22;3547;50.774;12.918;2023-05-16T11:27:35;12.20;1.00
7014;DHT22;3547;50.774;12.918;2023-05-16T11:32:39;13.40;1.00
7014;DHT22;3547;50.774;12.918;2023-05-16T11:35:08;13.80;1.00
7014;DHT22;3547;50.774;12.918;2023-05-16T11:37:35;13.30;1.00
7014;DHT22;3547;50.774;12.918;2023-05-16T11:40:05;12.90;1.00
7014;DHT22;3547;50.774;12.918;2023-05-16T11:42:35;12.30;1.00
7014;DHT22;3547;50.774;12.918;2023-05-16T11:45:15;12.30;1.00
7014;DHT22;3547;50.774;12.918;2023-05-16T11:47:42;12.40;1.00
7014;DHT22;3547;50.774;12.918;2023-05-16T11:50:17;12.20;1.00
7014;DHT22;3547;50.774;12.918;2023-05-16T11:52:48;12.00;1.00
7014;DHT22;3547;50.774;12.918;2023-05-16T11:55:21;12.00;1.00
7014;DHT22;3547;50.774;12.918;2023-05-16T11:57:50;12.00;1.00
7014;DHT22;3547;50.774;12.918;2023-05-16T12:00:21;11.60;1.00
7014;DHT22;3547;50.774;12.918;2023-05-16T12:02:49;11.60;1.00
7014;DHT22;3547;50.774;12.918;2023-05-16T12:05:17;11.70;1.00
7014;DHT22;3547;50.774;12.918;2023-05-16T12:07:44;11.70;1.00
7014;DHT22;3547;50.774;12.918;2023-05-16T12:10:13;12.00;1.00
7014;DHT22;3547;50.774;12.918;2023-05-16T12:12:41;11.90;1.00
7014;DHT22;3547;50.774;12.918;2023-05-16T12:15:08;12.00;1.00
7014;DHT22;3547;50.774;12.918;2023-05-16T12:17:35;11.60;1.00
7014;DHT22;3547;50.774;12.918;2023-05-16T12:20:03;11.70;1.00
7014;DHT22;3547;50.774;12.918;2023-05-16T12:22:34;11.80;1.00
7014;DHT22;3547;50.774;12.918;2023-05-16T12:27:48;11.90;1.00
7014;DHT22;3547;50.774;12.918;2023-05-16T12:30:16;11.70;1.00
7014;DHT22;3547;50.774;12.918;2023-05-16T12:32:43;11.50;1.00
7014;DHT22;3547;50.774;12.918;2023-05-16T12:35:21;11.50;1.00
7014;DHT22;3547;50.774;12.918;2023-05-16T12:37:48;11.40;1.00
7014;DHT22;3547;50.774;12.918;2023-05-16T12:40:16;11.60;1.00
7014;DHT22;3547;50.774;12.918;2023-05-16T12:42:43;11.70;1.00
7014;DHT22;3547;50.774;12.918;2023-05-16T12:45:16;11.90;1.00
7014;DHT22;3547;50.774;12.918;2023-05-16T12:47:43;12.10;1.00
7014;DHT22;3547;50.774;12.918;2023-05-16T12:50:13;12.30;1.00
7014;DHT22;3547;50.774;12.918;2023-05-16T12:55:18;12.30;1.00
7014;DHT22;3547;50.774;12.918;2023-05-16T12:57:46;12.10;1.00
7014;DHT22;3547;50.774;12.918;2023-05-16T13:00:13;12.10;1.00
7014;DHT22;3547;50.774;12.918;2023-05-16T13:02:40;12.10;1.00
7014;DHT22;3547;50.774;12.918;2023-05-16T13:05:07;11.70;1.00
7014;DHT22;3547;50.774;12.918;2023-05-16T13:07:34;11.70;1.00
7014;DHT22;3547;50.774;12.918;2023-05-16T13:10:00;11.50;1.00
7014;DHT22;3547;50.774;12.918;2023-05-16T13:12:27;11.20;1.00
7014;DHT22;3547;50.774;12.918;2023-05-16T13:14:53;11.00;1.00
7014;DHT22;3547;50.774;12.918;2023-05-16T13:17:19;11.10;1.00
7014;DHT22;3547;50.774;12.918;2023-05-16T13:19:46;10.90;1.00
7014;DHT22;3547;50.774;12.918;2023-05-16T13:22:12;10.80;1.00
7014;DHT22;3547;50.774;12.918;2023-05-16T13:24:38;10.80;1.00
7014;DHT22;3547;50.774;12.918;2023-05-16T13:27:04;10.60;1.00
7014;DHT22;3547;50.774;12.918;2023-05-16T13:29:30;10.60;1.00
7014;DHT22;3547;50.774;12.918;2023-05-16T13:31:57;10.90;1.00
7014;DHT22;3547;50.774;12.918;2023-05-16T13:34:23;11.30;1.00
7014;DHT22;3547;50.774;12.918;2023-05-16T13:36:49;11.20;1.00
7014;DHT22;3547;50.774;12.918;2023-05-16T13:39:16;11.30;1.00
7014;DHT22;3547;50.774;12.918;2023-05-16T13:41:43;11.30;1.00
7014;DHT22;3547;50.774;12.918;2023-05-16T13:44:09;11.50;1.00
7014;DHT22;3547;50.774;12.918;2023-05-16T13:46:36;11.60;1.00
7014;DHT22;3547;50.774;12.918;2023-05-16T13:49:02;11.70;1.00
7014;DHT22;3547;50.774;12.918;2023-05-16T13:51:29;11.80;1.00
7014;DHT22;3547;50.774;12.918;2023-05-16T13:53:56;11.70;1.00
7014;DHT22;3547;50.774;12.918;2023-05-16T13:56:23;11.60;1.00
7014;DHT22;3547;50.774;12.918;2023-05-16T13:58:49;11.80;1.00
7014;DHT22;3547;50.774;12.918;2023-05-16T14:01:16;11.80;1.00
7014;DHT22;3547;50.774;12.918;2023-05-16T14:03:42;12.10;1.00
7014;DHT22;3547;50.774;12.918;2023-05-16T14:06:08;12.20;1.00
7014;DHT22;3547;50.774;12.918;2023-05-16T14:08:35;12.10;1.00
7014;DHT22;3547;50.774;12.918;2023-05-16T14:11:01;11.70;1.00
7014;DHT22;3547;50.774;12.918;2023-05-16T14:13:28;11.60;1.00
7014;DHT22;3547;50.774;12.918;2023-05-16T14:15:55;11.60;1.00
7014;DHT22;3547;50.774;12.918;2023-05-16T14:18:22;11.50;1.00
7014;DHT22;3547;50.774;12.918;2023-05-16T14:20:50;11.50;1.00
7014;DHT22;3547;50.774;12.918;2023-05-16T14:23:17;11.20;1.00
7014;DHT22;3547;50.774;12.918;2023-05-16T14:25:43;11.10;1.00
7014;DHT22;3547;50.774;12.918;2023-05-16T14:28:09;11.10;1.00
7014;DHT22;3547;50.774;12.918;2023-05-16T14:30:35;10.80;1.00
7014;DHT22;3547;50.774;12.918;2023-05-16T14:33:02;10.90;1.00
7014;DHT22;3547;50.774;12.918;2023-05-16T14:35:28;10.90;1.00
7014;DHT22;3547;50.774;12.918;2023-05-16T14:37:55;11.00;1.00
7014;DHT22;3547;50.774;12.918;2023-05-16T14:40:21;11.00;1.00
7014;DHT22;3547;50.774;12.918;2023-05-16T14:42:48;11.10;1.00
7014;DHT22;3547;50.774;12.918;2023-05-16T14:45:14;11.20;1.00
7014;DHT22;3547;50.774;12.918;2023-05-16T14:47:41;11.20;1.00
7014;DHT22;3547;50.774;12.918;2023-05-16T14:50:07;11.30;1.00
7014;DHT22;3547;50.774;12.918;2023-05-16T14:52:33;11.30;1.00
7014;DHT22;3547;50.774;12.918;2023-05-16T14:55:00;11.20;1.00
7014;DHT22;3547;50.774;12.918;2023-05-16T14:57:26;11.30;1.00
7014;DHT22;3547;50.774;12.918;2023-05-16T14:59:52;11.30;1.00
7014;DHT22;3547;50.774;12.918;2023-05-16T15:02:18;11.30;1.00
7014;DHT22;3547;50.774;12.918;2023-05-16T15:04:44;11.50;1.00
7014;DHT22;3547;50.774;12.918;2023-05-16T15:07:10;11.40;1.00
7014;DHT22;3547;50.774;12.918;2023-05-16T15:09:36;11.40;1.00
7014;DHT22;3547;50.774;12.918;2023-05-16T15:12:03;11.60;1.00
7014;DHT22;3547;50.774;12.918;2023-05-16T15:14:29;11.60;1.00
7014;DHT22;3547;50.774;12.918;2023-05-16T15:16:55;11.70;1.00
7014;DHT22;3547;50.774;12.918;2023-05-16T15:19:22;11.80;1.00
7014;DHT22;3547;50.774;12.918;2023-05-16T15:21:48;11.70;1.00
7014;DHT22;3547;50.774;12.918;2023-05-16T15:24:14;11.60;1.00
7014;DHT22;3547;50.774;12.918;2023-05-16T15:26:41;11.60;1.00
7014;DHT22;3547;50.774;12.918;2023-05-16T15:29:07;11.50;1.00
7014;DHT22;3547;50.774;12.918;2023-05-16T15:31:33;11.60;1.00
7014;DHT22;3547;50.774;12.918;2023-05-16T15:34:00;11.40;1.00
7014;DHT22;3547;50.774;12.918;2023-05-16T15:36:26;11.50;1.00
7014;DHT22;3547;50.774;12.918;2023-05-16T15:38:52;11.60;1.00
7014;DHT22;3547;50.774;12.918;2023-05-16T15:41:19;11.70;1.00
7014;DHT22;3547;50.774;12.918;2023-05-16T15:43:45;11.70;1.00
7014;DHT22;3547;50.774;12.918;2023-05-16T15:46:13;11.70;1.00
7014;DHT22;3547;50.774;12.918;2023-05-16T15:48:39;11.90;1.00
7014;DHT22;3547;50.774;12.918;2023-05-16T15:51:11;12.20;1.00
7014;DHT22;3547;50.774;12.918;2023-05-16T15:53:38;13.10;1.00
7014;DHT22;3547;50.774;12.918;2023-05-16T15:56:05;14.00;1.00
7014;DHT22;3547;50.774;12.918;2023-05-16T15:58:32;14.70;1.00
7014;DHT22;3547;50.774;12.918;2023-05-16T16:00:58;13.90;1.00
7014;DHT22;3547;50.774;12.918;2023-05-16T16:03:24;13.60;1.00
7014;DHT22;3547;50.774;12.918;2023-05-16T16:05:50;13.10;1.00
7014;DHT22;3547;50.774;12.918;2023-05-16T16:08:18;12.80;1.00
7014;DHT22;3547;50.774;12.918;2023-05-16T16:10:45;12.60;1.00
7014;DHT22;3547;50.774;12.918;2023-05-16T16:13:11;12.50;1.00
7014;DHT22;3547;50.774;12.918;2023-05-16T16:15:38;12.50;1.00
7014;DHT22;3547;50.774;12.918;2023-05-16T16:18:06;12.70;1.00
7014;DHT22;3547;50.774;12.918;2023-05-16T16:20:33;13.10;1.00
7014;DHT22;3547;50.774;12.918;2023-05-16T16:23:00;13.20;1.00
7014;DHT22;3547;50.774;12.918;2023-05-16T16:25:27;13.00;1.00
7014;DHT22;3547;50.774;12.918;2023-05-16T16:27:53;12.90;1.00
7014;DHT22;3547;50.774;12.918;2023-05-16T16:30:21;13.60;1.00
7014;DHT22;3547;50.774;12.918;2023-05-16T16:32:50;14.60;1.00
7014;DHT22;3547;50.774;12.918;2023-05-16T16:35:18;15.30;1.00
7014;DHT22;3547;50.774;12.918;2023-05-16T16:37:45;16.50;1.00
7014;DHT22;3547;50.774;12.918;2023-05-16T16:40:13;17.50;1.00
7014;DHT22;3547;50.774;12.918;2023-05-16T16:42:39;17.00;1.00
7014;DHT22;3547;50.774;12.918;2023-05-16T16:45:06;16.30;1.00
7014;DHT22;3547;50.774;12.918;2023-05-16T16:47:32;16.50;1.00
7014;DHT22;3547;50.774;12.918;2023-05-16T16:49:59;16.30;1.00